sensor_id;sensor_type;location;lat;lon;timestamp;pressure;altitude;pressure_sealevel;temperature;humidity
20394;BME280;10356;50.544;9.642;2023-11-19T00:00:36;98050.00;;;6.06;100.00
20394;BME280;10356;50.544;9.642;2023-11-19T00:03:02;98058.03;;;6.01;100.00
20394;BME280;10356;50.544;9.642;2023-11-19T00:05:30;98051.84;;;6.04;100.00
20394;BME280;10356;50.544;9.642;2023-11-19T00:07:56;98051.00;;;6.03;100.00
20394;BME280;10356;50.544;9.642;2023-11-19T00:10:23;98048.53;;;6.02;100.00
20394;BME280;10356;50.544;9.642;2023-11-19T00:12:49;98057.03;;;6.04;100.00
20394;BME280;10356;50.544;9.642;2023-11-19T00:15:17;98063.94;;;6.03;100.00
20394;BME280;10356;50.544;9.642;2023-11-19T00:17:46;98064.84;;;6.02;100.00
20394;BME280;10356;50.544;9.642;2023-11-19T00:20:15;98067.53;;;6.01;100.00
20394;BME280;10356;50.544;9.642;2023-11-19T00:22:41;98049.16;;;6.05;100.00
20394;BME280;10356;50.544;9.642;2023-11-19T00:25:09;98040.47;;;6.06;100.00
20394;BME280;10356;50.544;9.642;2023-11-19T00:27:35;98036.13;;;6.07;100.00
20394;BME280;10356;50.544;9.642;2023-11-19T00:30:03;98042.31;;;6.04;100.00
20394;BME280;10356;50.544;9.642;2023-11-19T00:32:30;98025.78;;;6.07;100.00
20394;BME280;10356;50.544;9.642;2023-11-19T00:34:58;98032.63;;;6.08;100.00
20394;BME280;10356;50.544;9.642;2023-11-19T00:37:25;98018.97;;;6.06;100.00
20394;BME280;10356;50.544;9.642;2023-11-19T00:39:51;98016.56;;;6.03;100.00
20394;BME280;10356;50.544;9.642;2023-11-19T00:42:18;98004.91;;;6.10;100.00
20394;BME280;10356;50.544;9.642;2023-11-19T00:44:44;97990.53;;;6.06;100.00
20394;BME280;10356;50.544;9.642;2023-11-19T00:47:11;97992.72;;;6.12;100.00
20394;BME280;10356;50.544;9.642;2023-11-19T00:49:38;98000.47;;;6.12;100.00
20394;BME280;10356;50.544;9.642;2023-11-19T00:52:06;98009.69;;;6.16;100.00
20394;BME280;10356;50.544;9.642;2023-11-19T00:54:33;98002.66;;;6.18;100.00
20394;BME280;10356;50.544;9.642;2023-11-19T00:56:58;97992.06;;;6.08;100.00
20394;BME280;10356;50.544;9.642;2023-11-19T00:59:26;98005.03;;;6.21;100.00
20394;BME280;10356;50.544;9.642;2023-11-19T01:01:53;98004.69;;;6.13;100.00
20394;BME280;10356;50.544;9.642;2023-11-19T01:04:21;97988.44;;;6.11;100.00
20394;BME280;10356;50.544;9.642;2023-11-19T01:06:49;97987.72;;;6.09;100.00
20394;BME280;10356;50.544;9.642;2023-11-19T01:09:17;97984.22;;;6.10;100.00
20394;BME280;10356;50.544;9.642;2023-11-19T01:11:43;97989.91;;;6.15;100.00
20394;BME280;10356;50.544;9.642;2023-11-19T01:14:10;97974.13;;;6.19;100.00
20394;BME280;10356;50.544;9.642;2023-11-19T01:16:36;97963.94;;;6.16;100.00
20394;BME280;10356;50.544;9.642;2023-11-19T01:19:03;97974.28;;;6.16;100.00
20394;BME280;10356;50.544;9.642;2023-11-19T01:21:30;97969.78;;;6.20;100.00
20394;BME280;10356;50.544;9.642;2023-11-19T01:23:57;97980.94;;;6.20;100.00
20394;BME280;10356;50.544;9.642;2023-11-19T01:26:25;97967.59;;;6.14;100.00
20394;BME280;10356;50.544;9.642;2023-11-19T01:28:51;97965.34;;;6.22;100.00
20394;BME280;10356;50.544;9.642;2023-11-19T01:31:18;97961.06;;;6.21;100.00
20394;BME280;10356;50.544;9.642;2023-11-19T01:33:44;97944.63;;;6.22;100.00
20394;BME280;10356;50.544;9.642;2023-11-19T01:36:13;97960.88;;;6.24;100.00
20394;BME280;10356;50.544;9.642;2023-11-19T01:38:40;97960.78;;;6.25;100.00
20394;BME280;10356;50.544;9.642;2023-11-19T01:41:06;97958.19;;;6.25;100.00
20394;BME280;10356;50.544;9.642;2023-11-19T01:43:35;97962.53;;;6.25;100.00
20394;BME280;10356;50.544;9.642;2023-11-19T01:46:02;97945.88;;;6.29;100.00
20394;BME280;10356;50.544;9.642;2023-11-19T01:48:29;97934.63;;;6.30;100.00
20394;BME280;10356;50.544;9.642;2023-11-19T01:50:58;97933.78;;;6.29;100.00
20394;BME280;10356;50.544;9.642;2023-11-19T01:53:25;97942.16;;;6.33;100.00
20394;BME280;10356;50.544;9.642;2023-11-19T01:55:51;97925.50;;;6.37;100.00
20394;BME280;10356;50.544;9.642;2023-11-19T01:58:18;97923.88;;;6.36;100.00
20394;BME280;10356;50.544;9.642;2023-11-19T02:00:47;97908.03;;;6.40;100.00
20394;BME280;10356;50.544;9.642;2023-11-19T02:03:14;97919.22;;;6.41;100.00
20394;BME280;10356;50.544;9.642;2023-11-19T02:05:41;97924.94;;;6.46;100.00
20394;BME280;10356;50.544;9.642;2023-11-19T02:08:07;97911.25;;;6.44;100.00
20394;BME280;10356;50.544;9.642;2023-11-19T02:10:34;97907.53;;;6.48;100.00
20394;BME280;10356;50.544;9.642;2023-11-19T02:13:01;97894.50;;;6.49;100.00
20394;BME280;10356;50.544;9.642;2023-11-19T02:15:30;97892.22;;;6.57;100.00
20394;BME280;10356;50.544;9.642;2023-11-19T02:18:17;97894.69;;;6.59;100.00
20394;BME280;10356;50.544;9.642;2023-11-19T02:20:43;97886.00;;;6.60;100.00
20394;BME280;10356;50.544;9.642;2023-11-19T02:23:10;97879.69;;;6.64;100.00
20394;BME280;10356;50.544;9.642;2023-11-19T02:25:38;97875.75;;;6.71;100.00
20394;BME280;10356;50.544;9.642;2023-11-19T02:28:07;97874.09;;;6.70;100.00
20394;BME280;10356;50.544;9.642;2023-11-19T02:30:37;97867.56;;;6.77;100.00
20394;BME280;10356;50.544;9.642;2023-11-19T02:33:04;97858.75;;;6.79;100.00
20394;BME280;10356;50.544;9.642;2023-11-19T02:35:32;97851.31;;;6.88;100.00
20394;BME280;10356;50.544;9.642;2023-11-19T02:37:59;97849.53;;;6.88;100.00
20394;BME280;10356;50.544;9.642;2023-11-19T02:40:25;97852.63;;;6.93;100.00
20394;BME280;10356;50.544;9.642;2023-11-19T02:42:52;97860.81;;;7.00;100.00
20394;BME280;10356;50.544;9.642;2023-11-19T02:45:22;97856.66;;;6.97;100.00
20394;BME280;10356;50.544;9.642;2023-11-19T02:47:48;97846.94;;;7.01;100.00
20394;BME280;10356;50.544;9.642;2023-11-19T02:50:17;97849.63;;;6.99;100.00
20394;BME280;10356;50.544;9.642;2023-11-19T02:52:51;97824.97;;;7.06;100.00
20394;BME280;10356;50.544;9.642;2023-11-19T02:55:18;97823.56;;;7.13;100.00
20394;BME280;10356;50.544;9.642;2023-11-19T02:57:45;97823.66;;;7.24;100.00
20394;BME280;10356;50.544;9.642;2023-11-19T03:00:14;97820.41;;;7.33;100.00
20394;BME280;10356;50.544;9.642;2023-11-19T03:02:43;97827.31;;;7.45;100.00
20394;BME280;10356;50.544;9.642;2023-11-19T03:05:12;97829.69;;;7.48;100.00
20394;BME280;10356;50.544;9.642;2023-11-19T03:07:40;97826.38;;;7.46;100.00
20394;BME280;10356;50.544;9.642;2023-11-19T03:10:09;97832.75;;;7.53;100.00
20394;BME280;10356;50.544;9.642;2023-11-19T03:12:38;97827.56;;;7.53;100.00
20394;BME280;10356;50.544;9.642;2023-11-19T03:15:06;97822.41;;;7.53;100.00
20394;BME280;10356;50.544;9.642;2023-11-19T03:17:35;97808.41;;;7.56;100.00
20394;BME280;10356;50.544;9.642;2023-11-19T03:20:04;97796.66;;;7.63;100.00
20394;BME280;10356;50.544;9.642;2023-11-19T03:22:32;97801.41;;;7.69;100.00
20394;BME280;10356;50.544;9.642;2023-11-19T03:24:59;97791.16;;;7.79;100.00
20394;BME280;10356;50.544;9.642;2023-11-19T03:27:25;97793.88;;;7.77;100.00
20394;BME280;10356;50.544;9.642;2023-11-19T03:29:52;97789.28;;;7.81;100.00
20394;BME280;10356;50.544;9.642;2023-11-19T03:32:18;97784.75;;;7.72;100.00
20394;BME280;10356;50.544;9.642;2023-11-19T03:34:45;97799.41;;;7.73;100.00
20394;BME280;10356;50.544;9.642;2023-11-19T03:37:12;97788.09;;;7.74;100.00
20394;BME280;10356;50.544;9.642;2023-11-19T03:39:41;97771.84;;;7.83;100.00
20394;BME280;10356;50.544;9.642;2023-11-19T03:42:08;97780.13;;;7.88;100.00
20394;BME280;10356;50.544;9.642;2023-11-19T03:44:34;97773.16;;;7.88;100.00
20394;BME280;10356;50.544;9.642;2023-11-19T03:47:01;97781.56;;;7.92;100.00
20394;BME280;10356;50.544;9.642;2023-11-19T03:49:27;97786.94;;;7.89;100.00
20394;BME280;10356;50.544;9.642;2023-11-19T03:51:54;97801.81;;;7.87;100.00
20394;BME280;10356;50.544;9.642;2023-11-19T03:54:21;97816.91;;;7.93;100.00
20394;BME280;10356;50.544;9.642;2023-11-19T03:56:48;97815.53;;;8.00;100.00
20394;BME280;10356;50.544;9.642;2023-11-19T03:59:15;97810.47;;;8.09;100.00
20394;BME280;10356;50.544;9.642;2023-11-19T04:01:41;97810.84;;;8.16;100.00
20394;BME280;10356;50.544;9.642;2023-11-19T04:04:08;97813.53;;;8.14;100.00
20394;BME280;10356;50.544;9.642;2023-11-19T04:06:34;97802.13;;;8.17;100.00
20394;BME280;10356;50.544;9.642;2023-11-19T04:09:00;97789.16;;;8.17;100.00
20394;BME280;10356;50.544;9.642;2023-11-19T04:11:28;97790.00;;;8.28;100.00
20394;BME280;10356;50.544;9.642;2023-11-19T04:13:55;97792.50;;;8.30;100.00
20394;BME280;10356;50.544;9.642;2023-11-19T04:16:26;97792.41;;;8.31;100.00
20394;BME280;10356;50.544;9.642;2023-11-19T04:18:53;97789.44;;;8.25;100.00
20394;BME280;10356;50.544;9.642;2023-11-19T04:21:19;97802.06;;;8.29;100.00
20394;BME280;10356;50.544;9.642;2023-11-19T04:23:46;97799.59;;;8.28;100.00
20394;BME280;10356;50.544;9.642;2023-11-19T04:26:12;97807.38;;;8.39;100.00
20394;BME280;10356;50.544;9.642;2023-11-19T04:28:40;97796.78;;;8.42;100.00
20394;BME280;10356;50.544;9.642;2023-11-19T04:31:07;97786.41;;;8.42;100.00
20394;BME280;10356;50.544;9.642;2023-11-19T04:33:34;97789.44;;;8.47;100.00
20394;BME280;10356;50.544;9.642;2023-11-19T04:36:01;97793.09;;;8.44;100.00
20394;BME280;10356;50.544;9.642;2023-11-19T04:38:28;97781.19;;;8.53;100.00
20394;BME280;10356;50.544;9.642;2023-11-19T04:40:55;97787.81;;;8.57;100.00
20394;BME280;10356;50.544;9.642;2023-11-19T04:43:22;97787.81;;;8.68;100.00
20394;BME280;10356;50.544;9.642;2023-11-19T04:45:50;97785.09;;;8.70;100.00
20394;BME280;10356;50.544;9.642;2023-11-19T04:48:16;97777.41;;;8.57;100.00
20394;BME280;10356;50.544;9.642;2023-11-19T04:50:43;97779.31;;;8.66;100.00
20394;BME280;10356;50.544;9.642;2023-11-19T04:53:09;97768.94;;;8.66;100.00
20394;BME280;10356;50.544;9.642;2023-11-19T04:55:36;97765.50;;;8.66;100.00
20394;BME280;10356;50.544;9.642;2023-11-19T04:58:02;97750.75;;;8.66;100.00
20394;BME280;10356;50.544;9.642;2023-11-19T05:00:29;97752.88;;;8.61;100.00
20394;BME280;10356;50.544;9.642;2023-11-19T05:02:56;97751.09;;;8.51;100.00
20394;BME280;10356;50.544;9.642;2023-11-19T05:05:23;97758.56;;;8.44;100.00
20394;BME280;10356;50.544;9.642;2023-11-19T05:07:50;97765.84;;;8.39;100.00
20394;BME280;10356;50.544;9.642;2023-11-19T05:10:16;97778.94;;;8.37;100.00
20394;BME280;10356;50.544;9.642;2023-11-19T05:12:43;97766.78;;;8.49;100.00
20394;BME280;10356;50.544;9.642;2023-11-19T05:15:10;97780.50;;;8.51;100.00
20394;BME280;10356;50.544;9.642;2023-11-19T05:17:37;97782.41;;;8.60;100.00
20394;BME280;10356;50.544;9.642;2023-11-19T05:20:06;97774.59;;;8.60;100.00
20394;BME280;10356;50.544;9.642;2023-11-19T05:22:38;97776.72;;;8.55;100.00
20394;BME280;10356;50.544;9.642;2023-11-19T05:25:05;97776.72;;;8.66;100.00
20394;BME280;10356;50.544;9.642;2023-11-19T05:27:32;97775.28;;;8.73;100.00
20394;BME280;10356;50.544;9.642;2023-11-19T05:29:58;97786.84;;;8.69;100.00
20394;BME280;10356;50.544;9.642;2023-11-19T05:32:25;97779.56;;;8.74;100.00
20394;BME280;10356;50.544;9.642;2023-11-19T05:34:52;97790.28;;;8.81;100.00
20394;BME280;10356;50.544;9.642;2023-11-19T05:37:19;97788.75;;;8.89;100.00
20394;BME280;10356;50.544;9.642;2023-11-19T05:39:46;97799.84;;;8.91;100.00
20394;BME280;10356;50.544;9.642;2023-11-19T05:42:12;97778.56;;;8.97;100.00
20394;BME280;10356;50.544;9.642;2023-11-19T05:44:39;97772.66;;;8.95;100.00
20394;BME280;10356;50.544;9.642;2023-11-19T05:47:05;97775.28;;;8.95;100.00
20394;BME280;10356;50.544;9.642;2023-11-19T05:49:32;97767.03;;;8.90;100.00
20394;BME280;10356;50.544;9.642;2023-11-19T05:51:58;97770.81;;;8.86;100.00
20394;BME280;10356;50.544;9.642;2023-11-19T05:54:28;97760.66;;;8.94;100.00
20394;BME280;10356;50.544;9.642;2023-11-19T05:56:56;97762.06;;;8.98;100.00
20394;BME280;10356;50.544;9.642;2023-11-19T05:59:23;97752.59;;;8.97;100.00
20394;BME280;10356;50.544;9.642;2023-11-19T06:01:49;97746.25;;;8.90;100.00
20394;BME280;10356;50.544;9.642;2023-11-19T06:04:16;97751.44;;;8.90;100.00
20394;BME280;10356;50.544;9.642;2023-11-19T06:06:42;97754.47;;;8.95;100.00
20394;BME280;10356;50.544;9.642;2023-11-19T06:09:09;97758.50;;;8.99;100.00
20394;BME280;10356;50.544;9.642;2023-11-19T06:11:36;97766.91;;;9.03;100.00
20394;BME280;10356;50.544;9.642;2023-11-19T06:14:03;97753.41;;;9.09;100.00
20394;BME280;10356;50.544;9.642;2023-11-19T06:16:30;97753.28;;;9.10;100.00
20394;BME280;10356;50.544;9.642;2023-11-19T06:18:57;97758.50;;;9.10;100.00
20394;BME280;10356;50.544;9.642;2023-11-19T06:21:23;97751.88;;;9.06;100.00
20394;BME280;10356;50.544;9.642;2023-11-19T06:23:50;97760.94;;;9.12;100.00
20394;BME280;10356;50.544;9.642;2023-11-19T06:26:17;97763.69;;;9.10;100.00
20394;BME280;10356;50.544;9.642;2023-11-19T06:28:45;97771.59;;;9.09;100.00
20394;BME280;10356;50.544;9.642;2023-11-19T06:31:11;97765.31;;;9.11;100.00
20394;BME280;10356;50.544;9.642;2023-11-19T06:33:41;97767.69;;;9.14;100.00
20394;BME280;10356;50.544;9.642;2023-11-19T06:36:08;97764.59;;;9.20;100.00
20394;BME280;10356;50.544;9.642;2023-11-19T06:38:34;97758.34;;;9.23;100.00
20394;BME280;10356;50.544;9.642;2023-11-19T06:41:01;97757.16;;;9.16;100.00
20394;BME280;10356;50.544;9.642;2023-11-19T06:43:27;97761.50;;;9.26;100.00
20394;BME280;10356;50.544;9.642;2023-11-19T06:45:55;97767.91;;;9.22;100.00
20394;BME280;10356;50.544;9.642;2023-11-19T06:48:22;97764.34;;;9.23;100.00
20394;BME280;10356;50.544;9.642;2023-11-19T06:50:48;97762.22;;;9.28;100.00
20394;BME280;10356;50.544;9.642;2023-11-19T06:53:14;97770.59;;;9.32;100.00
20394;BME280;10356;50.544;9.642;2023-11-19T06:55:41;97779.44;;;9.29;100.00
20394;BME280;10356;50.544;9.642;2023-11-19T06:58:07;97771.44;;;9.32;100.00
20394;BME280;10356;50.544;9.642;2023-11-19T07:00:34;97763.13;;;9.39;100.00
20394;BME280;10356;50.544;9.642;2023-11-19T07:03:02;97769.97;;;9.40;100.00
20394;BME280;10356;50.544;9.642;2023-11-19T07:05:29;97775.06;;;9.41;100.00
20394;BME280;10356;50.544;9.642;2023-11-19T07:07:55;97771.66;;;9.29;100.00
20394;BME280;10356;50.544;9.642;2023-11-19T07:10:22;97774.50;;;9.26;100.00
20394;BME280;10356;50.544;9.642;2023-11-19T07:12:48;97783.50;;;9.22;100.00
20394;BME280;10356;50.544;9.642;2023-11-19T07:15:15;97786.88;;;9.34;100.00
20394;BME280;10356;50.544;9.642;2023-11-19T07:17:42;97797.97;;;9.47;100.00
20394;BME280;10356;50.544;9.642;2023-11-19T07:20:12;97801.28;;;9.49;100.00
20394;BME280;10356;50.544;9.642;2023-11-19T07:22:42;97808.25;;;9.49;100.00
20394;BME280;10356;50.544;9.642;2023-11-19T07:25:11;97813.66;;;9.57;100.00
20394;BME280;10356;50.544;9.642;2023-11-19T07:27:37;97808.31;;;9.69;100.00
20394;BME280;10356;50.544;9.642;2023-11-19T07:30:05;97798.53;;;9.82;100.00
20394;BME280;10356;50.544;9.642;2023-11-19T07:32:32;97803.16;;;9.79;100.00
20394;BME280;10356;50.544;9.642;2023-11-19T07:34:58;97809.00;;;9.71;100.00
20394;BME280;10356;50.544;9.642;2023-11-19T07:37:26;97806.50;;;9.70;100.00
20394;BME280;10356;50.544;9.642;2023-11-19T07:39:53;97803.41;;;9.76;100.00
20394;BME280;10356;50.544;9.642;2023-11-19T07:42:19;97802.81;;;9.83;100.00
20394;BME280;10356;50.544;9.642;2023-11-19T07:44:46;97796.31;;;9.78;100.00
20394;BME280;10356;50.544;9.642;2023-11-19T07:47:12;97801.44;;;9.68;100.00
20394;BME280;10356;50.544;9.642;2023-11-19T07:49:39;97810.34;;;9.55;100.00
20394;BME280;10356;50.544;9.642;2023-11-19T07:52:05;97810.19;;;9.67;100.00
20394;BME280;10356;50.544;9.642;2023-11-19T07:54:33;97812.69;;;9.69;100.00
20394;BME280;10356;50.544;9.642;2023-11-19T07:57:00;97805.81;;;9.68;100.00
20394;BME280;10356;50.544;9.642;2023-11-19T07:59:26;97802.75;;;9.63;100.00
20394;BME280;10356;50.544;9.642;2023-11-19T08:01:53;97814.06;;;9.73;100.00
20394;BME280;10356;50.544;9.642;2023-11-19T08:04:19;97811.91;;;9.78;100.00
20394;BME280;10356;50.544;9.642;2023-11-19T08:06:46;97817.13;;;9.78;100.00
20394;BME280;10356;50.544;9.642;2023-11-19T08:09:12;97811.41;;;9.84;100.00
20394;BME280;10356;50.544;9.642;2023-11-19T08:11:41;97817.44;;;9.84;100.00
20394;BME280;10356;50.544;9.642;2023-11-19T08:14:08;97815.88;;;9.93;100.00
20394;BME280;10356;50.544;9.642;2023-11-19T08:16:34;97810.03;;;10.00;100.00
20394;BME280;10356;50.544;9.642;2023-11-19T08:19:03;97813.38;;;10.23;100.00
20394;BME280;10356;50.544;9.642;2023-11-19T08:21:29;97805.22;;;10.28;100.00
20394;BME280;10356;50.544;9.642;2023-11-19T08:23:56;97810.47;;;10.37;100.00
20394;BME280;10356;50.544;9.642;2023-11-19T08:26:22;97810.22;;;10.40;100.00
20394;BME280;10356;50.544;9.642;2023-11-19T08:28:50;97808.03;;;10.45;100.00
20394;BME280;10356;50.544;9.642;2023-11-19T08:31:18;97799.50;;;10.34;100.00
20394;BME280;10356;50.544;9.642;2023-11-19T08:33:44;97795.34;;;10.31;100.00
20394;BME280;10356;50.544;9.642;2023-11-19T08:36:15;97792.06;;;10.29;100.00
20394;BME280;10356;50.544;9.642;2023-11-19T08:38:42;97794.78;;;10.28;100.00
20394;BME280;10356;50.544;9.642;2023-11-19T08:41:08;97793.44;;;10.33;100.00
20394;BME280;10356;50.544;9.642;2023-11-19T08:43:35;97786.78;;;10.40;100.00
20394;BME280;10356;50.544;9.642;2023-11-19T08:46:04;97795.06;;;10.55;100.00
20394;BME280;10356;50.544;9.642;2023-11-19T08:48:30;97804.84;;;10.62;100.00
20394;BME280;10356;50.544;9.642;2023-11-19T08:50:57;97799.13;;;10.68;100.00
20394;BME280;10356;50.544;9.642;2023-11-19T08:53:23;97811.50;;;10.76;100.00
20394;BME280;10356;50.544;9.642;2023-11-19T08:55:49;97816.44;;;10.79;100.00
20394;BME280;10356;50.544;9.642;2023-11-19T08:58:16;97823.34;;;10.89;100.00
20394;BME280;10356;50.544;9.642;2023-11-19T09:00:43;97808.84;;;10.96;100.00
20394;BME280;10356;50.544;9.642;2023-11-19T09:03:11;97811.03;;;11.01;100.00
20394;BME280;10356;50.544;9.642;2023-11-19T09:05:37;97814.91;;;11.07;100.00
20394;BME280;10356;50.544;9.642;2023-11-19T09:08:04;97805.00;;;11.01;100.00
20394;BME280;10356;50.544;9.642;2023-11-19T09:10:31;97809.16;;;11.13;100.00
20394;BME280;10356;50.544;9.642;2023-11-19T09:12:58;97817.41;;;11.18;100.00
20394;BME280;10356;50.544;9.642;2023-11-19T09:15:24;97808.78;;;11.27;100.00
20394;BME280;10356;50.544;9.642;2023-11-19T09:17:51;97812.34;;;11.26;100.00
20394;BME280;10356;50.544;9.642;2023-11-19T09:20:19;97830.91;;;11.32;100.00
20394;BME280;10356;50.544;9.642;2023-11-19T09:22:45;97829.00;;;11.44;100.00
20394;BME280;10356;50.544;9.642;2023-11-19T09:25:12;97827.06;;;11.46;100.00
20394;BME280;10356;50.544;9.642;2023-11-19T09:27:42;97828.75;;;11.47;100.00
20394;BME280;10356;50.544;9.642;2023-11-19T09:30:09;97824.91;;;11.51;100.00
20394;BME280;10356;50.544;9.642;2023-11-19T09:32:35;97830.13;;;11.51;100.00
20394;BME280;10356;50.544;9.642;2023-11-19T09:35:03;97828.75;;;11.56;100.00
20394;BME280;10356;50.544;9.642;2023-11-19T09:37:31;97834.00;;;11.66;100.00
20394;BME280;10356;50.544;9.642;2023-11-19T09:40:20;97830.31;;;11.78;100.00
20394;BME280;10356;50.544;9.642;2023-11-19T09:42:47;97831.28;;;11.87;100.00
20394;BME280;10356;50.544;9.642;2023-11-19T09:45:15;97829.09;;;12.11;100.00
20394;BME280;10356;50.544;9.642;2023-11-19T09:47:43;97829.19;;;12.28;100.00
20394;BME280;10356;50.544;9.642;2023-11-19T09:50:12;97830.41;;;12.43;100.00
20394;BME280;10356;50.544;9.642;2023-11-19T09:52:40;97821.03;;;12.50;98.39
20394;BME280;10356;50.544;9.642;2023-11-19T09:55:07;97833.97;;;12.61;96.58
20394;BME280;10356;50.544;9.642;2023-11-19T09:57:34;97809.59;;;12.61;95.31
20394;BME280;10356;50.544;9.642;2023-11-19T10:00:02;97821.00;;;12.70;96.21
20394;BME280;10356;50.544;9.642;2023-11-19T10:02:33;97816.00;;;12.86;95.80
20394;BME280;10356;50.544;9.642;2023-11-19T10:05:04;97810.66;;;12.78;94.23
20394;BME280;10356;50.544;9.642;2023-11-19T10:07:32;97820.44;;;12.76;94.20
20394;BME280;10356;50.544;9.642;2023-11-19T10:10:00;97822.53;;;12.62;92.86
20394;BME280;10356;50.544;9.642;2023-11-19T10:12:27;97833.09;;;12.71;92.29
20394;BME280;10356;50.544;9.642;2023-11-19T10:14:56;97833.09;;;12.71;93.02
20394;BME280;10356;50.544;9.642;2023-11-19T10:17:27;97831.16;;;12.73;90.59
20394;BME280;10356;50.544;9.642;2023-11-19T10:19:54;97824.72;;;12.67;88.70
20394;BME280;10356;50.544;9.642;2023-11-19T10:22:22;97824.56;;;12.68;90.32
20394;BME280;10356;50.544;9.642;2023-11-19T10:24:49;97828.84;;;12.70;89.18
20394;BME280;10356;50.544;9.642;2023-11-19T10:27:17;97822.31;;;12.83;89.56
20394;BME280;10356;50.544;9.642;2023-11-19T10:29:45;97818.97;;;13.00;87.69
20394;BME280;10356;50.544;9.642;2023-11-19T10:32:12;97814.75;;;12.90;86.68
20394;BME280;10356;50.544;9.642;2023-11-19T10:34:40;97815.69;;;12.98;86.62
20394;BME280;10356;50.544;9.642;2023-11-19T10:37:07;97813.59;;;13.02;86.32
20394;BME280;10356;50.544;9.642;2023-11-19T10:39:51;97807.97;;;13.06;86.18
20394;BME280;10356;50.544;9.642;2023-11-19T10:42:21;97800.50;;;13.02;83.98
20394;BME280;10356;50.544;9.642;2023-11-19T10:44:47;97796.66;;;13.06;85.56
20394;BME280;10356;50.544;9.642;2023-11-19T10:47:14;97795.28;;;13.02;83.14
20394;BME280;10356;50.544;9.642;2023-11-19T10:49:42;97784.56;;;13.05;82.41
20394;BME280;10356;50.544;9.642;2023-11-19T10:52:11;97804.09;;;13.10;79.26
20394;BME280;10356;50.544;9.642;2023-11-19T10:54:44;97805.81;;;13.19;80.78
20394;BME280;10356;50.544;9.642;2023-11-19T10:57:17;97791.03;;;13.28;80.88
20394;BME280;10356;50.544;9.642;2023-11-19T10:59:47;97797.94;;;13.29;78.68
20394;BME280;10356;50.544;9.642;2023-11-19T11:02:22;97785.53;;;13.31;73.78
20394;BME280;10356;50.544;9.642;2023-11-19T11:04:51;97798.75;;;13.29;73.63
20394;BME280;10356;50.544;9.642;2023-11-19T11:07:21;97766.75;;;13.35;69.54
20394;BME280;10356;50.544;9.642;2023-11-19T11:09:51;97768.56;;;13.35;69.75
20394;BME280;10356;50.544;9.642;2023-11-19T11:12:21;97782.00;;;13.40;71.99
20394;BME280;10356;50.544;9.642;2023-11-19T11:14:50;97796.53;;;13.52;70.26
20394;BME280;10356;50.544;9.642;2023-11-19T11:17:19;97795.44;;;13.72;70.29
20394;BME280;10356;50.544;9.642;2023-11-19T11:19:46;97796.47;;;13.62;69.76
20394;BME280;10356;50.544;9.642;2023-11-19T11:22:14;97795.44;;;13.72;69.58
20394;BME280;10356;50.544;9.642;2023-11-19T11:25:10;97803.88;;;13.66;67.77
20394;BME280;10356;50.544;9.642;2023-11-19T11:28:05;97804.72;;;13.67;68.75
20394;BME280;10356;50.544;9.642;2023-11-19T11:30:49;97802.16;;;13.57;68.13
20394;BME280;10356;50.544;9.642;2023-11-19T11:33:29;97805.97;;;13.45;68.02
20394;BME280;10356;50.544;9.642;2023-11-19T11:36:07;97818.75;;;13.48;69.57
20394;BME280;10356;50.544;9.642;2023-11-19T11:38:37;97799.91;;;13.44;68.39
20394;BME280;10356;50.544;9.642;2023-11-19T11:41:20;97806.91;;;13.26;68.73
20394;BME280;10356;50.544;9.642;2023-11-19T11:43:48;97812.22;;;13.07;70.23
20394;BME280;10356;50.544;9.642;2023-11-19T11:49:28;97824.41;;;12.80;69.44
20394;BME280;10356;50.544;9.642;2023-11-19T11:52:00;97820.94;;;12.89;70.27
20394;BME280;10356;50.544;9.642;2023-11-19T11:54:28;97818.47;;;12.87;70.38
20394;BME280;10356;50.544;9.642;2023-11-19T11:57:03;97821.22;;;12.86;70.96
20394;BME280;10356;50.544;9.642;2023-11-19T11:59:37;97815.16;;;12.85;69.99
20394;BME280;10356;50.544;9.642;2023-11-19T12:02:04;97819.59;;;12.75;69.67
20394;BME280;10356;50.544;9.642;2023-11-19T12:04:32;97816.25;;;12.83;70.26
20394;BME280;10356;50.544;9.642;2023-11-19T12:07:04;97815.38;;;13.11;70.00
20394;BME280;10356;50.544;9.642;2023-11-19T12:09:31;97830.53;;;13.34;68.24
20394;BME280;10356;50.544;9.642;2023-11-19T12:12:07;97815.00;;;13.51;68.34
20394;BME280;10356;50.544;9.642;2023-11-19T12:14:59;97819.06;;;13.45;66.68
20394;BME280;10356;50.544;9.642;2023-11-19T12:17:43;97813.41;;;13.40;66.70
20394;BME280;10356;50.544;9.642;2023-11-19T12:20:16;97804.06;;;13.37;66.29
20394;BME280;10356;50.544;9.642;2023-11-19T12:22:44;97804.63;;;13.41;67.00
20394;BME280;10356;50.544;9.642;2023-11-19T12:25:11;97798.13;;;13.45;64.90
20394;BME280;10356;50.544;9.642;2023-11-19T12:27:39;97790.47;;;13.34;66.06
20394;BME280;10356;50.544;9.642;2023-11-19T12:30:07;97797.03;;;13.38;64.35
20394;BME280;10356;50.544;9.642;2023-11-19T12:32:37;97798.97;;;13.36;64.12
20394;BME280;10356;50.544;9.642;2023-11-19T12:35:05;97795.84;;;13.32;64.58
20394;BME280;10356;50.544;9.642;2023-11-19T12:37:33;97795.53;;;13.35;64.29
20394;BME280;10356;50.544;9.642;2023-11-19T12:40:00;97790.19;;;13.37;65.04
20394;BME280;10356;50.544;9.642;2023-11-19T12:42:36;97786.56;;;13.38;64.45
20394;BME280;10356;50.544;9.642;2023-11-19T12:45:04;97782.69;;;13.42;62.46
20394;BME280;10356;50.544;9.642;2023-11-19T12:47:31;97791.38;;;13.42;63.30
20394;BME280;10356;50.544;9.642;2023-11-19T12:49:58;97782.94;;;13.48;63.31
20394;BME280;10356;50.544;9.642;2023-11-19T12:52:24;97786.06;;;13.52;62.33
20394;BME280;10356;50.544;9.642;2023-11-19T12:54:52;97783.28;;;13.36;63.72
20394;BME280;10356;50.544;9.642;2023-11-19T12:57:20;97772.63;;;13.20;62.80
20394;BME280;10356;50.544;9.642;2023-11-19T12:59:55;97768.56;;;13.08;65.07
20394;BME280;10356;50.544;9.642;2023-11-19T13:02:22;97769.06;;;13.21;63.25
20394;BME280;10356;50.544;9.642;2023-11-19T13:04:49;97768.59;;;13.25;64.81
20394;BME280;10356;50.544;9.642;2023-11-19T13:07:20;97770.78;;;13.30;64.24